Time;durP1;ratioP1;P1;durP2;ratioP2;P2;SDS_P1;SDS_P2;PMS_P1;PMS_P2;Temp;Humidity;BMP_temperature;BMP_pressure;BME280_temperature;BME280_humidity;BME280_pressure;Samples;Min_cycle;Max_cycle;Signal;HPM_P1;HPM_P2
2022/02/14 00:01:11;;;;;;;16.35;6.22;;;;;;;13.45;54.70;99843.47;4956453;28;20533;-55
2022/02/14 00:03:37;;;;;;;14.55;6.43;;;;;;;13.42;54.33;99834.81;4950392;28;20393;-56
2022/02/14 00:06:02;;;;;;;13.02;6.15;;;;;;;13.38;54.02;99839.19;4954741;28;20133;-56
2022/02/14 00:08:28;;;;;;;18.48;6.25;;;;;;;13.34;54.24;99837.53;4961173;28;20061;-57
2022/02/14 00:10:53;;;;;;;16.42;6.30;;;;;;;13.34;54.32;99835.78;4953655;28;20038;-57
2022/02/14 00:13:18;;;;;;;16.08;5.93;;;;;;;13.31;54.39;99824.47;4950147;28;20093;-59
2022/02/14 00:15:44;;;;;;;20.25;6.28;;;;;;;13.42;53.93;99824.34;4951593;28;20052;-56
2022/02/14 00:18:10;;;;;;;13.48;6.15;;;;;;;13.46;53.82;99821.63;4953388;28;20061;-58
2022/02/14 00:20:35;;;;;;;21.17;6.35;;;;;;;13.59;53.20;99817.09;4954643;28;20049;-56
2022/02/14 00:23:00;;;;;;;17.25;5.78;;;;;;;13.63;53.32;99819.63;4951920;28;20049;-57
2022/02/14 00:25:26;;;;;;;13.55;6.07;;;;;;;13.59;53.48;99822.31;4947381;28;20141;-58
2022/02/14 00:27:51;;;;;;;14.43;6.53;;;;;;;13.51;53.86;99817.19;4949843;28;20050;-57
2022/02/14 00:30:17;;;;;;;22.00;6.82;;;;;;;13.48;53.79;99812.00;4957386;28;20046;-56
2022/02/14 00:32:42;;;;;;;16.80;5.95;;;;;;;13.39;54.13;99806.91;4960147;28;20046;-55
2022/02/14 00:35:10;;;;;;;16.95;6.20;;;;;;;13.48;54.01;99808.53;4940964;28;20185;-57
2022/02/14 00:37:36;;;;;;;13.18;5.88;;;;;;;13.53;53.78;99794.47;4949337;28;20428;-57
2022/02/14 00:40:01;;;;;;;15.75;6.10;;;;;;;13.52;53.90;99792.75;4940127;28;20490;-57
2022/02/14 00:42:29;;;;;;;11.88;5.82;;;;;;;13.71;53.41;99786.31;4941925;28;20108;-57
2022/02/14 00:44:55;;;;;;;16.10;6.65;;;;;;;13.72;53.24;99789.81;4950550;28;20077;-57
2022/02/14 00:47:20;;;;;;;15.55;5.95;;;;;;;13.69;53.26;99782.84;4950493;28;20042;-60
2022/02/14 00:49:46;;;;;;;15.60;6.10;;;;;;;13.68;53.46;99775.88;4954323;28;20736;-57
2022/02/14 00:52:12;;;;;;;12.60;6.45;;;;;;;13.61;53.60;99761.16;4952877;28;20058;-57
2022/02/14 00:54:37;;;;;;;14.50;6.50;;;;;;;13.48;53.90;99764.03;4956697;28;20095;-54
2022/02/14 00:57:03;;;;;;;15.70;6.40;;;;;;;13.58;53.63;99749.88;4958200;28;20157;-55
2022/02/14 00:59:28;;;;;;;14.95;6.25;;;;;;;13.71;53.22;99754.91;4951040;28;20051;-54
2022/02/14 01:01:53;;;;;;;19.40;6.35;;;;;;;13.67;53.37;99758.44;4958633;28;20054;-53
2022/02/14 01:04:19;;;;;;;15.82;6.65;;;;;;;13.75;53.07;99748.69;4954899;28;20041;-55
2022/02/14 01:06:44;;;;;;;16.33;6.75;;;;;;;13.72;53.06;99748.75;4955711;28;20802;-57
2022/02/14 01:09:10;;;;;;;17.13;6.60;;;;;;;13.68;53.08;99736.59;4954043;28;20105;-58
2022/02/14 01:11:35;;;;;;;11.77;6.00;;;;;;;13.67;53.29;99740.09;4949979;28;20077;-57
2022/02/14 01:14:01;;;;;;;17.23;6.43;;;;;;;13.65;53.20;99726.19;4934522;28;20509;-58
2022/02/14 01:16:32;;;;;;;18.75;6.10;;;;;;;13.69;53.16;99716.50;4955418;28;20041;-57
2022/02/14 01:18:57;;;;;;;18.75;5.90;;;;;;;13.68;52.97;99718.25;4955485;28;20509;-57
2022/02/14 01:21:22;;;;;;;19.95;6.30;;;;;;;13.65;53.18;99718.34;4946502;28;20042;-58
2022/02/14 01:23:48;;;;;;;14.52;6.05;;;;;;;13.53;53.53;99694.97;4954106;28;20065;-57
2022/02/14 01:26:14;;;;;;;17.30;6.25;;;;;;;13.51;53.39;99688.03;4956643;28;20042;-58
2022/02/14 01:28:40;;;;;;;17.45;5.85;;;;;;;13.72;52.90;99691.13;4954479;28;20057;-58
2022/02/14 01:31:05;;;;;;;15.55;6.55;;;;;;;13.62;53.31;99684.31;4953888;28;20073;-56
2022/02/14 01:33:30;;;;;;;19.50;6.63;;;;;;;13.72;53.01;99682.41;4946156;28;20078;-57
2022/02/14 01:35:56;;;;;;;18.10;6.28;;;;;;;13.61;53.07;99677.34;4958116;28;20103;-57
2022/02/14 01:38:21;;;;;;;14.02;6.10;;;;;;;13.62;53.33;99672.97;4926456;28;20518;-57
2022/02/14 01:40:46;;;;;;;18.65;6.20;;;;;;;13.56;53.59;99673.97;4958881;28;20085;-57
2022/02/14 01:43:16;;;;;;;17.33;6.45;;;;;;;13.54;53.70;99667.88;4949878;28;20060;-55
2022/02/14 01:45:43;;;;;;;15.82;6.05;;;;;;;13.58;53.86;99666.09;4948128;28;20058;-57
2022/02/14 01:48:09;;;;;;;14.90;6.03;;;;;;;13.69;53.51;99658.88;4949998;28;20050;-57
2022/02/14 01:50:34;;;;;;;14.10;6.22;;;;;;;13.59;53.59;99660.81;4952846;28;20038;-56
2022/02/14 01:53:00;;;;;;;16.95;6.05;;;;;;;13.70;53.31;99655.38;4949281;28;20144;-55
2022/02/14 01:55:26;;;;;;;20.42;5.70;;;;;;;13.72;53.16;99658.84;4943281;28;20521;-54
2022/02/14 01:57:51;;;;;;;14.65;5.43;;;;;;;13.69;53.16;99648.41;4956073;28;20490;-55
2022/02/14 02:00:17;;;;;;;12.57;5.20;;;;;;;13.74;53.00;99649.19;4960715;28;20137;-55
2022/02/14 02:02:43;;;;;;;13.18;5.50;;;;;;;13.81;53.05;99640.31;4961198;28;20224;-54
2022/02/14 02:05:09;;;;;;;10.15;4.72;;;;;;;13.79;53.04;99631.63;4952419;28;20046;-56
2022/02/14 02:07:35;;;;;;;12.93;5.25;;;;;;;13.65;53.17;99638.91;4953203;28;20076;-57
2022/02/14 02:10:01;;;;;;;14.60;5.03;;;;;;;13.59;53.42;99623.28;4959409;28;20050;-57
2022/02/14 02:12:27;;;;;;;14.23;4.93;;;;;;;13.63;53.23;99615.34;4960778;28;20097;-56
2022/02/14 02:14:55;;;;;;;16.52;4.70;;;;;;;13.72;52.99;99620.38;4958225;28;20050;-57
2022/02/14 02:17:27;;;;;;;14.82;4.60;;;;;;;13.68;53.01;99618.72;4955584;28;20070;-56
2022/02/14 02:19:52;;;;;;;14.73;4.63;;;;;;;13.82;52.52;99621.97;4950999;28;20046;-57
2022/02/14 02:22:17;;;;;;;13.77;4.50;;;;;;;13.95;52.61;99608.63;4958280;28;20574;-56
2022/02/14 02:24:50;;;;;;;11.80;4.63;;;;;;;14.00;52.37;99617.25;4959261;28;20078;-60
2022/02/14 02:27:17;;;;;;;14.30;4.53;;;;;;;14.02;52.28;99599.75;4953791;28;20050;-56
2022/02/14 02:29:43;;;;;;;10.32;4.38;;;;;;;14.00;52.42;99588.41;4957691;28;20129;-57
2022/02/14 02:32:10;;;;;;;10.15;4.30;;;;;;;13.95;52.53;99598.13;4955292;28;20151;-57
2022/02/14 02:34:41;;;;;;;17.15;4.35;;;;;;;13.88;52.67;99592.16;4958253;28;20399;-57
2022/02/14 02:37:08;;;;;;;10.10;3.92;;;;;;;13.82;52.92;99587.91;4954460;28;20097;-57
2022/02/14 02:39:35;;;;;;;15.10;4.80;;;;;;;13.93;52.37;99573.72;4935304;28;20317;-56
2022/02/14 02:42:02;;;;;;;12.20;4.18;;;;;;;13.94;52.45;99589.41;4962670;28;20073;-56
2022/02/14 02:44:27;;;;;;;11.18;4.30;;;;;;;13.74;53.14;99581.09;4959781;28;20055;-56
2022/02/14 02:46:53;;;;;;;13.50;4.18;;;;;;;13.87;52.82;99576.47;4940697;28;20026;-56
2022/02/14 02:49:20;;;;;;;12.80;4.10;;;;;;;13.82;52.58;99572.19;4955031;28;20433;-56
2022/02/14 02:51:48;;;;;;;14.32;3.90;;;;;;;13.89;52.63;99570.31;4956286;28;20597;-57
2022/02/14 02:54:15;;;;;;;9.63;4.20;;;;;;;13.98;52.34;99564.84;4957330;28;20049;-58
2022/02/14 02:56:42;;;;;;;13.10;4.28;;;;;;;13.90;52.62;99555.44;4960046;28;20393;-56
2022/02/14 02:59:11;;;;;;;11.82;3.97;;;;;;;13.98;52.49;99557.00;4956025;28;20632;-57
2022/02/14 03:01:37;;;;;;;11.35;4.10;;;;;;;13.90;52.92;99553.69;4939572;28;20057;-56
2022/02/14 03:04:04;;;;;;;10.52;3.90;;;;;;;14.05;52.27;99547.25;4954697;28;20555;-56
2022/02/14 03:06:30;;;;;;;8.77;3.80;;;;;;;13.95;52.49;99543.97;4955515;28;20504;-57
2022/02/14 03:08:55;;;;;;;10.68;4.07;;;;;;;14.00;52.25;99541.25;4945469;28;20487;-56
2022/02/14 03:11:22;;;;;;;12.00;4.28;;;;;;;13.93;52.45;99542.28;4954717;28;20046;-60
2022/02/14 03:13:49;;;;;;;13.52;4.05;;;;;;;13.89;52.83;99525.78;4958054;28;20118;-57
2022/02/14 03:16:15;;;;;;;14.00;4.25;;;;;;;14.05;52.20;99531.53;4952630;28;20038;-54
2022/02/14 03:18:41;;;;;;;11.57;3.92;;;;;;;14.15;52.02;99527.78;4939355;28;24026;-57
2022/02/14 03:21:07;;;;;;;9.82;3.90;;;;;;;14.10;51.85;99527.91;4959104;28;20529;-56
2022/02/14 03:23:33;;;;;;;11.63;4.30;;;;;;;14.09;51.81;99526.19;4949882;28;20149;-55
2022/02/14 03:25:59;;;;;;;10.65;4.63;;;;;;;14.05;52.23;99527.16;4960208;28;20035;-56
2022/02/14 03:28:24;;;;;;;13.50;4.30;;;;;;;13.96;52.32;99531.75;4955937;28;20050;-55
2022/02/14 03:30:50;;;;;;;12.73;4.57;;;;;;;13.97;52.21;99528.19;4959348;28;20049;-56
2022/02/14 03:33:15;;;;;;;12.73;3.92;;;;;;;13.95;52.25;99532.63;4957340;28;20038;-56
2022/02/14 03:35:41;;;;;;;20.70;4.20;;;;;;;13.87;52.32;99524.94;4955353;28;20046;-55
2022/02/14 03:38:07;;;;;;;12.30;4.03;;;;;;;14.12;51.77;99522.63;4957341;28;20549;-56
2022/02/14 03:40:37;;;;;;;10.68;3.72;;;;;;;14.15;51.71;99512.06;4954279;28;20050;-56
2022/02/14 03:43:06;;;;;;;10.00;3.50;;;;;;;13.75;52.72;99515.56;4956523;28;20493;-56
2022/02/14 03:45:33;;;;;;;8.95;3.58;;;;;;;13.99;52.04;99522.03;4948064;28;20436;-55
2022/02/14 03:47:59;;;;;;;10.82;3.97;;;;;;;13.95;52.07;99514.28;4958340;28;20046;-55
2022/02/14 03:50:25;;;;;;;12.63;3.50;;;;;;;14.10;52.14;99521.78;4957505;28;20410;-59
2022/02/14 03:52:50;;;;;;;13.15;3.58;;;;;;;14.05;51.91;99514.03;4953449;28;20080;-56
2022/02/14 03:55:16;;;;;;;9.93;3.70;;;;;;;13.84;52.49;99504.06;4935599;28;20457;-55
2022/02/14 03:57:42;;;;;;;10.80;3.28;;;;;;;13.96;52.02;99498.53;4952055;28;20050;-57
2022/02/14 04:00:11;;;;;;;9.40;3.53;;;;;;;13.73;52.85;99506.88;4954618;28;20047;-57
2022/02/14 04:02:37;;;;;;;9.25;3.53;;;;;;;13.97;52.25;99479.28;4956658;28;20524;-58
2022/02/14 04:05:03;;;;;;;7.65;3.40;;;;;;;14.02;52.39;99505.41;4955812;28;20050;-56
2022/02/14 04:07:29;;;;;;;8.60;3.20;;;;;;;13.72;53.06;99492.06;4949737;28;20481;-57
2022/02/14 04:09:55;;;;;;;13.43;3.85;;;;;;;13.66;53.30;99478.25;4955534;28;20034;-57
2022/02/14 04:12:20;;;;;;;9.88;3.78;;;;;;;13.84;53.08;99483.09;4954932;28;20049;-57
2022/02/14 04:14:46;;;;;;;13.27;3.40;;;;;;;13.67;53.49;99496.53;4958811;28;20047;-56
2022/02/14 04:17:11;;;;;;;10.57;3.50;;;;;;;13.69;53.48;99492.13;4957919;28;20053;-56
2022/02/14 04:19:37;;;;;;;7.65;3.45;;;;;;;13.73;53.21;99483.31;4929244;28;20466;-56
2022/02/14 04:22:03;;;;;;;7.90;3.13;;;;;;;13.72;53.27;99484.19;4959883;28;20077;-56
2022/02/14 04:24:29;;;;;;;8.57;3.60;;;;;;;13.69;53.43;99483.41;4954853;28;20142;-56
2022/02/14 04:26:54;;;;;;;7.88;3.10;;;;;;;13.78;52.99;99486.69;4958251;28;20498;-57
2022/02/14 04:29:20;;;;;;;8.15;3.38;;;;;;;13.77;53.00;99492.84;4947561;28;20046;-59
2022/02/14 04:31:45;;;;;;;7.78;3.30;;;;;;;13.75;53.45;99483.28;4959928;28;20979;-58
2022/02/14 04:34:10;;;;;;;12.60;3.35;;;;;;;13.62;53.93;99484.44;4956388;28;20057;-55
2022/02/14 04:36:36;;;;;;;10.02;3.40;;;;;;;13.49;54.31;99482.97;4958531;28;20030;-56
2022/02/14 04:39:02;;;;;;;7.00;3.17;;;;;;;13.65;53.82;99479.16;4954455;28;20078;-57
2022/02/14 04:41:27;;;;;;;9.82;3.10;;;;;;;13.76;53.70;99490.25;4951226;28;20140;-58
2022/02/14 04:43:53;;;;;;;9.82;3.40;;;;;;;13.59;54.33;99487.13;4957306;28;20133;-55
2022/02/14 04:46:18;;;;;;;10.23;3.30;;;;;;;13.70;54.02;99493.00;4947063;28;20170;-56
2022/02/14 04:48:44;;;;;;;10.07;3.28;;;;;;;13.58;54.28;99480.16;4956153;28;20425;-55
2022/02/14 04:51:10;;;;;;;11.88;3.40;;;;;;;13.73;54.09;99492.91;4960204;28;20073;-57
2022/02/14 04:53:35;;;;;;;7.65;3.30;;;;;;;13.53;54.50;99479.41;4949812;28;20736;-58
2022/02/14 04:56:01;;;;;;;10.18;3.17;;;;;;;13.57;54.41;99486.28;4956689;28;20107;-55
2022/02/14 04:58:27;;;;;;;11.73;3.40;;;;;;;13.57;54.71;99489.78;4959591;28;20161;-57
2022/02/14 05:00:52;;;;;;;5.95;3.30;;;;;;;13.63;54.37;99492.25;4954629;28;20122;-57
2022/02/14 05:03:18;;;;;;;8.00;3.28;;;;;;;13.53;54.59;99487.25;4954994;28;20452;-54
2022/02/14 05:05:43;;;;;;;7.55;3.25;;;;;;;13.43;54.88;99502.28;4949270;28;20163;-56
2022/02/14 05:08:08;;;;;;;8.43;3.28;;;;;;;13.43;54.92;99496.16;4952887;28;20062;-55
2022/02/14 05:10:34;;;;;;;8.65;3.30;;;;;;;13.44;54.80;99496.16;4936573;28;20162;-56
2022/02/14 05:12:59;;;;;;;7.28;3.28;;;;;;;13.48;54.73;99489.94;4956513;28;20149;-56
2022/02/14 05:15:24;;;;;;;8.80;3.25;;;;;;;13.47;54.83;99480.41;4951577;28;20073;-54
2022/02/14 05:17:50;;;;;;;7.95;3.15;;;;;;;13.60;54.38;99500.16;4955701;28;20157;-54
2022/02/14 05:20:15;;;;;;;9.00;3.35;;;;;;;13.38;55.08;99498.88;4918842;28;20049;-57
2022/02/14 05:22:41;;;;;;;10.00;3.30;;;;;;;13.34;55.52;99505.94;4954158;28;20054;-57
2022/02/14 05:25:06;;;;;;;8.25;3.22;;;;;;;13.38;55.46;99501.50;4954420;28;20498;-56
2022/02/14 05:27:32;;;;;;;8.18;3.33;;;;;;;13.47;55.34;99513.56;4944879;28;20042;-55
2022/02/14 05:29:57;;;;;;;7.53;3.10;;;;;;;13.40;55.82;99523.28;4954742;28;20043;-55
2022/02/14 05:32:22;;;;;;;10.68;3.50;;;;;;;13.46;56.09;99517.06;4962002;28;20050;-56
2022/02/14 05:34:48;;;;;;;10.20;3.20;;;;;;;13.48;56.03;99516.13;4941597;28;20050;-57
2022/02/14 05:37:15;;;;;;;7.35;2.90;;;;;;;13.28;56.81;99528.75;4954495;28;20054;-55
2022/02/14 05:39:44;;;;;;;7.88;3.10;;;;;;;13.27;56.92;99521.78;4951466;28;20654;-55
2022/02/14 05:42:10;;;;;;;8.85;3.20;;;;;;;13.23;57.66;99530.59;4956998;28;20162;-54
2022/02/14 05:44:36;;;;;;;10.73;3.50;;;;;;;13.21;57.83;99533.25;4951579;28;20161;-58
2022/02/14 05:47:01;;;;;;;7.90;3.65;;;;;;;13.16;59.28;99542.06;4953259;28;20042;-56
2022/02/14 05:49:27;;;;;;;7.60;3.60;;;;;;;12.92;60.71;99557.28;4941591;28;20046;-56
2022/02/14 05:51:52;;;;;;;8.50;3.60;;;;;;;13.15;60.68;99563.91;4946710;28;20765;-56
2022/02/14 05:54:17;;;;;;;8.52;3.80;;;;;;;13.04;61.96;99573.66;4951184;28;20046;-57
2022/02/14 05:56:43;;;;;;;10.32;4.20;;;;;;;12.86;63.11;99585.31;4959038;28;20142;-57
2022/02/14 05:59:08;;;;;;;8.38;4.05;;;;;;;12.83;63.59;99585.34;4949675;28;20050;-54
2022/02/14 06:01:34;;;;;;;7.68;2.97;;;;;;;12.60;64.34;99580.47;4950279;28;20038;-56
2022/02/14 06:03:59;;;;;;;5.05;2.30;;;;;;;12.54;64.07;99599.72;4952156;28;20158;-56
2022/02/14 06:06:25;;;;;;;4.13;2.17;;;;;;;12.26;65.58;99598.38;4933355;28;20245;-56
2022/02/14 06:08:50;;;;;;;4.20;2.10;;;;;;;12.25;65.92;99604.53;4955884;28;20047;-56
2022/02/14 06:11:15;;;;;;;5.25;2.25;;;;;;;12.26;66.26;99613.22;4932382;28;20506;-55
2022/02/14 06:13:41;;;;;;;4.50;1.77;;;;;;;12.03;66.83;99608.28;4947616;28;20149;-55
2022/02/14 06:16:06;;;;;;;3.03;1.83;;;;;;;11.79;68.13;99614.66;4955613;28;20382;-55
2022/02/14 06:18:32;;;;;;;5.18;2.03;;;;;;;11.63;68.87;99628.75;4957874;28;20105;-56
2022/02/14 06:20:57;;;;;;;4.38;2.10;;;;;;;11.81;68.76;99622.50;4952615;28;20152;-56
2022/02/14 06:23:22;;;;;;;6.93;2.60;;;;;;;11.65;69.22;99635.66;4942546;28;20042;-57
2022/02/14 06:25:48;;;;;;;6.28;2.80;;;;;;;11.64;69.96;99633.09;4959285;28;20373;-54
2022/02/14 06:28:13;;;;;;;6.10;2.80;;;;;;;11.71;69.96;99645.22;4956478;28;20062;-55
2022/02/14 06:30:39;;;;;;;8.23;3.38;;;;;;;11.62;70.18;99646.16;4955785;28;20042;-54
2022/02/14 06:33:04;;;;;;;6.38;3.40;;;;;;;11.64;69.92;99662.69;4953196;28;20066;-56
2022/02/14 06:35:29;;;;;;;5.85;3.53;;;;;;;11.58;70.42;99661.88;4950197;28;20054;-55
2022/02/14 06:37:55;;;;;;;8.98;3.63;;;;;;;11.46;70.99;99662.00;4953170;28;20038;-55
2022/02/14 06:40:20;;;;;;;5.35;3.25;;;;;;;11.48;71.22;99673.25;4949723;28;20624;-56
2022/02/14 06:42:47;;;;;;;8.60;3.75;;;;;;;11.60;71.04;99675.75;4941367;28;20519;-57
2022/02/14 06:45:15;;;;;;;7.97;3.55;;;;;;;11.58;70.81;99687.97;4946971;28;20050;-55
2022/02/14 06:47:41;;;;;;;10.13;3.80;;;;;;;11.56;71.17;99680.16;4947637;28;20410;-57
2022/02/14 06:50:07;;;;;;;6.95;3.70;;;;;;;11.59;70.91;99690.53;4956240;28;20139;-56
2022/02/14 06:52:32;;;;;;;8.20;3.80;;;;;;;11.61;70.66;99698.38;4950929;28;20049;-56
2022/02/14 06:54:58;;;;;;;8.73;3.65;;;;;;;11.57;70.92;99697.53;4949813;28;20047;-56
2022/02/14 06:57:23;;;;;;;7.68;3.95;;;;;;;11.60;70.78;99699.25;4950879;28;20622;-56
2022/02/14 06:59:48;;;;;;;7.68;4.00;;;;;;;11.56;70.69;99714.09;4960459;28;20253;-55
2022/02/14 07:02:14;;;;;;;9.23;4.20;;;;;;;11.56;71.07;99714.09;4930640;28;20034;-56
2022/02/14 07:04:39;;;;;;;10.13;4.07;;;;;;;11.47;71.23;99723.72;4955014;28;20070;-56
2022/02/14 07:07:05;;;;;;;7.18;3.60;;;;;;;11.47;71.04;99716.75;4957562;28;20094;-57
2022/02/14 07:09:30;;;;;;;8.48;4.00;;;;;;;11.45;71.09;99726.38;4945771;28;20066;-55
2022/02/14 07:11:55;;;;;;;8.77;3.65;;;;;;;11.46;70.85;99728.09;4958702;28;20085;-56
2022/02/14 07:14:21;;;;;;;7.38;3.83;;;;;;;11.49;70.70;99738.50;4961398;28;20070;-53
2022/02/14 07:16:46;;;;;;;8.00;3.88;;;;;;;11.43;70.84;99738.56;4956109;28;20473;-56
2022/02/14 07:19:12;;;;;;;9.27;4.10;;;;;;;11.37;70.84;99738.59;4947856;28;20034;-56
2022/02/14 07:21:37;;;;;;;9.80;4.25;;;;;;;11.35;71.08;99737.75;4930786;28;20034;-55
2022/02/14 07:24:03;;;;;;;11.18;4.40;;;;;;;11.40;70.77;99741.22;4951684;28;20053;-54
2022/02/14 07:26:28;;;;;;;9.35;4.20;;;;;;;11.31;71.09;99739.53;4958621;28;20509;-56
2022/02/14 07:28:53;;;;;;;9.60;3.67;;;;;;;11.36;71.08;99750.78;4956949;28;20446;-56
2022/02/14 07:31:19;;;;;;;9.40;3.80;;;;;;;11.39;71.13;99748.16;4958584;28;20039;-54
2022/02/14 07:33:44;;;;;;;11.68;3.05;;;;;;;11.28;70.84;99760.41;4949799;28;20431;-55
2022/02/14 07:36:10;;;;;;;10.43;3.13;;;;;;;11.33;71.06;99768.22;4955226;28;20042;-54
2022/02/14 07:38:35;;;;;;;11.20;2.70;;;;;;;11.33;71.12;99766.47;4958924;28;20314;-56
2022/02/14 07:41:01;;;;;;;8.23;2.33;;;;;;;11.33;70.80;99779.53;4955397;28;20038;-56
2022/02/14 07:43:27;;;;;;;8.23;1.80;;;;;;;11.32;70.53;99779.53;4946120;28;20274;-54
2022/02/14 07:45:52;;;;;;;9.43;1.90;;;;;;;11.48;70.03;99788.97;4938140;28;20038;-56
2022/02/14 07:48:17;;;;;;;10.20;2.15;;;;;;;11.41;70.02;99792.50;4957445;28;20896;-55
2022/02/14 07:50:43;;;;;;;9.23;2.10;;;;;;;11.47;69.50;99792.44;4946364;28;20038;-56
2022/02/14 07:53:10;;;;;;;10.23;1.73;;;;;;;11.44;69.84;99795.09;4957108;28;21144;-56
2022/02/14 07:55:36;;;;;;;6.05;1.80;;;;;;;11.51;69.17;99807.22;4954205;28;20389;-55
2022/02/14 07:58:02;;;;;;;13.25;1.90;;;;;;;11.59;68.82;99801.94;4959065;28;20480;-54
2022/02/14 08:00:27;;;;;;;9.27;2.00;;;;;;;11.55;69.28;99814.16;4949109;28;20125;-57
2022/02/14 08:02:53;;;;;;;11.85;2.35;;;;;;;11.51;69.06;99816.81;4934499;28;20112;-56
2022/02/14 08:05:18;;;;;;;9.38;2.05;;;;;;;11.54;69.08;99809.78;4955304;28;20054;-56
2022/02/14 08:07:44;;;;;;;9.68;1.88;;;;;;;11.60;68.73;99824.53;4936161;28;20618;-57
2022/02/14 08:10:09;;;;;;;15.05;2.45;;;;;;;11.54;68.97;99815.03;4941858;28;20046;-55
2022/02/14 08:12:34;;;;;;;12.07;2.35;;;;;;;11.62;68.75;99818.44;4940960;28;20367;-56
2022/02/14 08:15:01;;;;;;;10.57;2.28;;;;;;;11.59;68.30;99812.38;4951445;28;20048;-52
2022/02/14 08:17:34;;;;;;;14.07;2.25;;;;;;;11.83;67.84;99808.75;4945892;28;20549;-55
2022/02/14 08:20:00;;;;;;;8.82;2.17;;;;;;;11.83;67.76;99821.81;4959385;28;20050;-52
2022/02/14 08:22:26;;;;;;;9.25;2.30;;;;;;;11.83;67.52;99830.50;4952388;28;20054;-52
2022/02/14 08:24:53;;;;;;;8.30;2.60;;;;;;;11.86;67.26;99829.59;4956214;28;20372;-53
2022/02/14 08:27:19;;;;;;;6.88;2.20;;;;;;;11.89;66.95;99826.97;4952879;28;20050;-59
2022/02/14 08:29:45;;;;;;;7.57;2.45;;;;;;;11.90;66.41;99821.72;4956062;28;20057;-54
2022/02/14 08:32:13;;;;;;;9.75;2.70;;;;;;;11.93;66.84;99831.28;4956266;28;20085;-55
2022/02/14 08:34:39;;;;;;;7.60;2.60;;;;;;;12.01;66.69;99839.94;4954981;28;20042;-56
2022/02/14 08:37:04;;;;;;;6.95;2.58;;;;;;;11.94;66.89;99844.34;4957600;28;20667;-56
2022/02/14 08:39:30;;;;;;;7.53;2.80;;;;;;;11.86;67.31;99834.81;4944632;28;20117;-56
2022/02/14 08:41:55;;;;;;;7.82;3.30;;;;;;;11.92;67.09;99842.59;4952579;28;20560;-51
2022/02/14 08:44:23;;;;;;;9.95;3.53;;;;;;;11.89;67.17;99843.53;4936871;28;20047;-55
2022/02/14 08:46:49;;;;;;;8.40;3.70;;;;;;;11.74;67.51;99843.63;4953558;28;20120;-53
2022/02/14 08:49:14;;;;;;;8.02;3.30;;;;;;;11.79;67.74;99847.06;4962469;28;20042;-55
2022/02/14 08:51:40;;;;;;;8.52;3.72;;;;;;;12.03;67.21;99843.38;4942229;28;22924;-55
2022/02/14 08:54:06;;;;;;;8.60;3.65;;;;;;;12.01;67.04;99840.81;4958285;28;20046;-55
2022/02/14 08:56:32;;;;;;;7.97;3.97;;;;;;;11.99;67.35;99846.91;4959096;28;20038;-54
2022/02/14 08:58:57;;;;;;;8.15;3.88;;;;;;;12.17;66.66;99851.97;4958267;28;20121;-56
2022/02/14 09:01:22;;;;;;;9.45;3.90;;;;;;;12.29;66.41;99861.44;4946397;28;20556;-56
2022/02/14 09:03:48;;;;;;;7.60;4.00;;;;;;;12.28;65.84;99860.56;4952544;28;20462;-56
2022/02/14 09:06:14;;;;;;;7.78;3.88;;;;;;;12.22;65.87;99855.41;4961416;28;20046;-57
2022/02/14 09:08:39;;;;;;;7.22;4.00;;;;;;;12.26;65.72;99864.94;4937565;28;20133;-56
2022/02/14 09:11:05;;;;;;;8.80;4.03;;;;;;;12.38;65.21;99870.03;4959157;28;20047;-57
2022/02/14 09:13:33;;;;;;;8.02;3.83;;;;;;;12.22;65.40;99876.31;4946204;28;20057;-55
2022/02/14 09:15:59;;;;;;;9.98;4.00;;;;;;;12.26;65.25;99880.59;4954968;28;20097;-55
2022/02/14 09:18:25;;;;;;;9.93;4.28;;;;;;;12.37;64.88;99867.47;4940591;28;20050;-53
2022/02/14 09:20:50;;;;;;;9.43;3.50;;;;;;;12.29;65.21;99875.38;4956391;28;20039;-55
2022/02/14 09:23:16;;;;;;;7.43;3.33;;;;;;;12.44;64.91;99883.03;4957749;28;20573;-56
2022/02/14 09:25:42;;;;;;;7.00;3.40;;;;;;;12.40;65.02;99893.56;4953540;28;20062;-57
2022/02/14 09:28:09;;;;;;;10.35;3.95;;;;;;;12.16;65.34;99887.69;4952708;28;20586;-55
2022/02/14 09:30:35;;;;;;;8.57;3.42;;;;;;;12.33;64.68;99904.94;4957852;28;20054;-56
2022/02/14 09:33:00;;;;;;;6.60;3.50;;;;;;;12.14;65.59;99907.72;4958050;28;20046;-56
2022/02/14 09:35:26;;;;;;;8.68;3.85;;;;;;;12.17;65.36;99901.59;4948236;28;20039;-54
2022/02/14 09:37:56;;;;;;;6.70;3.35;;;;;;;12.25;65.13;99917.22;4952835;28;20573;-54
2022/02/14 09:40:22;;;;;;;7.00;3.30;;;;;;;12.26;64.89;99909.34;4953324;28;20262;-57
2022/02/14 09:42:48;;;;;;;6.97;3.38;;;;;;;12.24;64.56;99921.59;4955298;28;20092;-54
2022/02/14 09:45:16;;;;;;;8.60;3.22;;;;;;;12.19;64.55;99918.16;4954880;28;20046;-55
2022/02/14 09:47:43;;;;;;;8.07;3.60;;;;;;;12.34;63.84;99919.75;4948757;28;20614;-55
2022/02/14 09:50:09;;;;;;;11.15;2.90;;;;;;;12.14;63.24;99933.84;4956347;28;20659;-57
2022/02/14 09:52:35;;;;;;;11.25;3.00;;;;;;;12.45;62.57;99925.72;4949450;28;20046;-56
2022/02/14 09:55:00;;;;;;;11.35;2.58;;;;;;;12.52;61.55;99938.75;4959620;28;20042;-57
2022/02/14 09:57:26;;;;;;;5.90;2.08;;;;;;;12.64;60.52;99940.38;4946025;28;20054;-57
2022/02/14 09:59:51;;;;;;;6.53;2.13;;;;;;;12.84;60.38;99945.41;4935992;28;20374;-56
2022/02/14 10:02:22;;;;;;;8.50;1.92;;;;;;;12.83;59.79;99957.63;4956636;28;20062;-55
2022/02/14 10:05:13;;;;;;;12.68;2.40;;;;;;;12.25;61.22;99944.22;4954412;28;20732;-55
2022/02/14 10:07:50;;;;;;;13.90;2.10;;;;;;;12.59;60.74;99948.25;4933565;28;20034;-54
2022/02/14 10:10:21;;;;;;;10.70;2.45;;;;;;;12.81;60.17;99950.66;4937763;28;20476;-56
2022/02/14 10:12:55;;;;;;;9.70;2.10;;;;;;;12.87;60.17;99958.44;4954614;28;20057;-52
2022/02/14 10:15:21;;;;;;;16.13;2.45;;;;;;;13.07;59.34;99955.59;4945840;28;20069;-58
2022/02/14 10:17:49;;;;;;;12.55;2.25;;;;;;;13.08;58.67;99955.59;4949772;28;20606;-53
2022/02/14 10:20:19;;;;;;;8.70;1.90;;;;;;;12.91;58.88;99952.31;4950066;28;20703;-54
2022/02/14 10:22:52;;;;;;;12.40;2.03;;;;;;;12.83;58.30;99962.84;4954163;28;20076;-56
2022/02/14 10:25:39;;;;;;;14.10;2.17;;;;;;;12.97;58.20;99957.47;4957495;28;20086;-57
2022/02/14 10:28:25;;;;;;;11.48;1.88;;;;;;;13.19;57.81;99968.59;4937546;28;20612;-57
2022/02/14 10:31:05;;;;;;;9.55;1.70;;;;;;;12.96;57.81;99968.81;4938676;28;20108;-57
2022/02/14 10:33:56;;;;;;;9.43;1.70;;;;;;;12.99;57.76;99971.41;4934301;28;20078;-56
2022/02/14 10:36:31;;;;;;;7.45;1.60;;;;;;;13.16;57.02;99981.72;4929995;28;20054;-57
2022/02/14 10:39:16;;;;;;;9.13;1.60;;;;;;;13.20;56.18;99993.88;4932890;28;20042;-57
2022/02/14 10:41:46;;;;;;;12.38;1.77;;;;;;;13.19;56.84;99992.13;4934224;28;20046;-55
2022/02/14 10:45:07;;;;;;;8.98;1.85;;;;;;;13.28;56.33;99990.31;4935537;28;20192;-54
2022/02/14 10:47:07;;;;;;;10.18;2.00;;;;;;;13.15;56.53;99993.94;4937719;28;20828;-56
2022/02/14 10:49:32;;;;;;;12.63;1.95;;;;;;;13.05;56.79;100004.50;4915710;28;20040;-54
2022/02/14 10:52:02;;;;;;;12.18;2.20;;;;;;;12.93;57.22;99997.63;4938419;28;20425;-50
2022/02/14 10:54:35;;;;;;;8.25;1.83;;;;;;;12.93;56.53;99993.25;4933472;28;20054;-53
2022/02/14 10:57:01;;;;;;;11.45;2.10;;;;;;;12.92;57.37;100006.38;4945763;28;20074;-54
2022/02/14 10:59:27;;;;;;;7.47;1.88;;;;;;;12.96;57.10;100006.31;4929694;28;20089;-53
2022/02/14 11:01:53;;;;;;;6.80;1.90;;;;;;;13.00;57.01;100018.47;4936344;28;20039;-56
2022/02/14 11:04:18;;;;;;;9.30;1.65;;;;;;;12.95;56.27;100007.19;4932014;28;20035;-56
2022/02/14 11:06:44;;;;;;;7.50;1.58;;;;;;;12.90;56.13;100018.59;4939931;28;20418;-56
2022/02/14 11:09:09;;;;;;;9.20;1.70;;;;;;;12.64;56.80;100010.09;4938095;28;20039;-55
2022/02/14 11:11:36;;;;;;;7.78;1.73;;;;;;;12.80;55.98;100023.06;4930494;28;20448;-56
2022/02/14 11:14:03;;;;;;;7.40;1.48;;;;;;;12.88;55.93;100015.09;4920561;28;20035;-55
2022/02/14 11:16:31;;;;;;;7.57;1.70;;;;;;;13.03;55.44;100025.44;4935650;28;20158;-56
2022/02/14 11:19:00;;;;;;;8.25;1.65;;;;;;;13.07;54.85;100028.88;4939918;28;20145;-56
2022/02/14 11:21:27;;;;;;;8.07;1.58;;;;;;;13.01;54.94;100035.91;4934707;28;20901;-55
2022/02/14 11:24:01;;;;;;;5.75;1.50;;;;;;;13.09;54.52;100033.22;4937559;28;20097;-56
2022/02/14 11:26:38;;;;;;;4.72;1.60;;;;;;;13.23;53.98;100033.13;4950245;28;20401;-56